Time;durP1;ratioP1;P1;durP2;ratioP2;P2;SDS_P1;SDS_P2;PMS_P1;PMS_P2;Temp;Humidity;BMP_temperature;BMP_pressure;BME280_temperature;BME280_humidity;BME280_pressure;Samples;Min_cycle;Max_cycle;Signal;HPM_P1;HPM_P2
2021/06/10 00:00:48;;;;;;;5.07;2.80;;;15.20;99.90;;;;;;5074818;28;20412;-73
2021/06/10 00:03:15;;;;;;;7.00;2.55;;;15.20;99.90;;;;;;5074886;28;20046;-73
2021/06/10 00:05:41;;;;;;;6.22;3.63;;;15.20;99.90;;;;;;5075178;28;20362;-73
2021/06/10 00:08:07;;;;;;;8.77;3.55;;;15.30;99.90;;;;;;5083152;28;20294;-73
2021/06/10 00:10:34;;;;;;;8.32;3.63;;;15.20;99.90;;;;;;5084261;28;20409;-73
2021/06/10 00:13:00;;;;;;;6.25;3.03;;;15.20;99.90;;;;;;5083700;28;20051;-73
2021/06/10 00:15:29;;;;;;;8.25;2.60;;;15.20;99.90;;;;;;5081477;28;20562;-73
2021/06/10 00:17:54;;;;;;;5.93;2.70;;;15.20;99.90;;;;;;5081494;28;20082;-73
2021/06/10 00:20:22;;;;;;;7.30;3.28;;;15.20;99.90;;;;;;5080900;28;20047;-73
2021/06/10 00:22:48;;;;;;;6.72;3.42;;;15.20;99.90;;;;;;5078430;28;20028;-73
2021/06/10 00:25:14;;;;;;;6.82;3.75;;;15.20;99.90;;;;;;5082479;28;20461;-73
2021/06/10 00:27:40;;;;;;;9.80;4.53;;;15.10;99.90;;;;;;5079935;28;20028;-73
2021/06/10 00:30:15;;;;;;;6.97;3.92;;;15.10;99.90;;;;;;5065486;28;20465;-73
2021/06/10 00:32:40;;;;;;;8.73;4.10;;;15.10;99.90;;;;;;5074264;28;20025;-73
2021/06/10 00:35:06;;;;;;;5.97;3.25;;;15.00;99.90;;;;;;5080458;28;20512;-73
2021/06/10 00:37:32;;;;;;;8.23;4.78;;;15.00;99.90;;;;;;5082721;28;20043;-72
2021/06/10 00:39:58;;;;;;;8.30;5.10;;;15.00;99.90;;;;;;5074975;28;20044;-73
2021/06/10 00:42:24;;;;;;;6.88;4.85;;;15.00;99.90;;;;;;5072353;28;20315;-73
2021/06/10 00:44:50;;;;;;;7.55;3.70;;;14.90;99.90;;;;;;5064877;28;20039;-73
2021/06/10 00:47:16;;;;;;;6.65;3.00;;;14.90;99.90;;;;;;5083057;28;20496;-74
2021/06/10 00:49:43;;;;;;;8.70;2.78;;;14.90;99.90;;;;;;5082042;28;20020;-73
2021/06/10 00:52:10;;;;;;;8.10;3.47;;;14.90;99.90;;;;;;5082507;28;20477;-73
2021/06/10 00:54:37;;;;;;;9.48;3.97;;;14.90;99.90;;;;;;5075451;28;20043;-73
2021/06/10 00:57:03;;;;;;;5.20;3.60;;;14.90;99.90;;;;;;5074357;28;20063;-73
2021/06/10 00:59:29;;;;;;;10.20;3.88;;;14.80;99.90;;;;;;5080213;28;20103;-73
2021/06/10 01:01:55;;;;;;;3.88;2.30;;;14.80;99.90;;;;;;5078010;28;20385;-73
2021/06/10 01:04:20;;;;;;;4.93;2.45;;;14.90;99.90;;;;;;5081656;28;20026;-73
2021/06/10 01:06:51;;;;;;;6.95;3.42;;;14.90;99.90;;;;;;5084365;28;20455;-73
2021/06/10 01:09:44;;;;;;;6.90;2.80;;;15.00;99.90;;;;;;5084954;28;20024;-73
2021/06/10 01:12:42;;;;;;;6.85;2.70;;;14.90;99.90;;;;;;5079517;28;20130;-73
2021/06/10 01:15:15;;;;;;;4.10;2.55;;;14.80;99.90;;;;;;5062573;28;20084;-73
2021/06/10 01:17:44;;;;;;;3.92;2.63;;;14.80;99.90;;;;;;5084608;28;20531;-73
2021/06/10 01:20:14;;;;;;;6.30;2.60;;;14.80;99.90;;;;;;5071099;28;20063;-73
2021/06/10 01:22:48;;;;;;;7.65;3.22;;;14.80;99.90;;;;;;5086355;28;20035;-73
2021/06/10 01:25:20;;;;;;;6.35;2.83;;;14.80;99.90;;;;;;5084576;28;20020;-73
2021/06/10 01:27:50;;;;;;;6.07;3.40;;;14.70;99.90;;;;;;5083339;28;20040;-73
2021/06/10 01:30:20;;;;;;;7.05;3.30;;;14.70;99.90;;;;;;5079126;28;20036;-73
2021/06/10 01:32:50;;;;;;;8.00;2.80;;;14.60;99.90;;;;;;5088615;28;20155;-73
2021/06/10 01:35:19;;;;;;;7.10;2.70;;;14.60;99.90;;;;;;5079581;28;20491;-73
2021/06/10 01:37:46;;;;;;;5.43;2.80;;;14.60;99.90;;;;;;5082265;28;20106;-73
2021/06/10 01:40:13;;;;;;;7.50;3.58;;;14.60;99.90;;;;;;5080001;28;20064;-73
2021/06/10 01:42:40;;;;;;;8.77;3.72;;;14.60;99.90;;;;;;5081162;28;20575;-73
2021/06/10 01:45:10;;;;;;;6.80;2.72;;;14.50;99.90;;;;;;5081286;28;20097;-73
2021/06/10 01:47:43;;;;;;;6.85;3.13;;;14.50;99.90;;;;;;5079832;28;20032;-73
2021/06/10 01:50:10;;;;;;;7.03;3.38;;;14.40;99.90;;;;;;5086714;28;20158;-73
2021/06/10 01:52:38;;;;;;;7.32;3.75;;;14.50;99.90;;;;;;5089733;28;20031;-73
2021/06/10 01:55:08;;;;;;;7.13;4.10;;;14.50;99.90;;;;;;5089726;28;20475;-73
2021/06/10 01:57:35;;;;;;;8.32;4.35;;;14.50;99.90;;;;;;5084294;28;20051;-73
2021/06/10 02:00:01;;;;;;;5.75;3.05;;;14.50;99.90;;;;;;5081744;28;20063;-73
2021/06/10 02:02:28;;;;;;;6.50;3.40;;;14.50;99.90;;;;;;5079058;28;20032;-73
2021/06/10 02:04:56;;;;;;;6.55;3.72;;;14.50;99.90;;;;;;5081262;28;20047;-73
2021/06/10 02:07:22;;;;;;;6.07;3.42;;;14.50;99.90;;;;;;5078252;28;20032;-73
2021/06/10 02:09:48;;;;;;;9.85;3.60;;;14.40;99.90;;;;;;5084068;28;20025;-73
2021/06/10 02:12:14;;;;;;;9.73;4.00;;;14.30;99.90;;;;;;5076286;28;20044;-73
2021/06/10 02:14:42;;;;;;;7.85;3.70;;;14.30;99.90;;;;;;5081433;28;20039;-73
2021/06/10 02:17:08;;;;;;;7.32;3.05;;;14.20;99.90;;;;;;5073395;28;20513;-73
2021/06/10 02:19:36;;;;;;;8.63;3.47;;;14.30;99.90;;;;;;5081355;28;20095;-73
2021/06/10 02:22:02;;;;;;;6.07;3.30;;;14.30;99.90;;;;;;5072916;28;20037;-73
2021/06/10 02:24:28;;;;;;;6.93;3.15;;;14.30;99.90;;;;;;5081337;28;20359;-73
2021/06/10 02:26:54;;;;;;;5.18;2.10;;;14.30;99.90;;;;;;5063593;28;20032;-73
2021/06/10 02:29:19;;;;;;;4.22;1.27;;;14.30;99.90;;;;;;5080769;28;20032;-72
2021/06/10 02:31:45;;;;;;;2.90;1.65;;;14.30;99.90;;;;;;5073837;28;20656;-72
2021/06/10 02:34:12;;;;;;;8.73;2.90;;;14.30;99.90;;;;;;5081732;28;20040;-73
2021/06/10 02:36:40;;;;;;;4.93;3.40;;;14.30;99.90;;;;;;5077577;28;20115;-73
2021/06/10 02:39:11;;;;;;;6.32;3.28;;;14.30;99.90;;;;;;5074639;28;20043;-73
2021/06/10 02:41:44;;;;;;;6.00;2.65;;;14.30;99.90;;;;;;5084073;28;20555;-73
2021/06/10 02:44:11;;;;;;;9.50;4.13;;;14.20;99.90;;;;;;5083018;28;20055;-73
2021/06/10 02:46:40;;;;;;;7.47;3.22;;;14.20;99.90;;;;;;5077198;28;20037;-73
2021/06/10 02:49:08;;;;;;;6.30;3.13;;;14.20;99.90;;;;;;5083758;28;20131;-73
2021/06/10 02:51:35;;;;;;;8.02;3.40;;;14.20;99.90;;;;;;5077241;28;20085;-72
2021/06/10 02:54:04;;;;;;;7.35;3.70;;;14.20;99.90;;;;;;5075791;28;20490;-72
2021/06/10 02:56:30;;;;;;;7.60;3.20;;;14.20;99.90;;;;;;5078393;28;20036;-73
2021/06/10 02:59:00;;;;;;;4.70;2.47;;;14.20;99.90;;;;;;5066958;28;20040;-72
2021/06/10 03:01:26;;;;;;;5.53;2.88;;;14.20;99.90;;;;;;5081427;28;20283;-73
2021/06/10 03:03:52;;;;;;;5.03;2.45;;;14.20;99.90;;;;;;5085289;28;20115;-73
2021/06/10 03:06:20;;;;;;;6.93;3.55;;;14.10;99.90;;;;;;5082143;28;20107;-74
2021/06/10 03:08:50;;;;;;;7.93;3.63;;;14.10;99.90;;;;;;5084345;28;20035;-73
2021/06/10 03:11:20;;;;;;;10.25;4.00;;;14.10;99.90;;;;;;5082900;28;20037;-73
2021/06/10 03:13:47;;;;;;;11.38;4.28;;;14.00;99.90;;;;;;5080052;28;20039;-73
2021/06/10 03:16:13;;;;;;;8.27;4.32;;;14.00;99.90;;;;;;5083110;28;20501;-72
2021/06/10 03:18:39;;;;;;;12.50;4.50;;;14.00;99.90;;;;;;5083486;28;20040;-72
2021/06/10 03:21:05;;;;;;;6.20;3.95;;;14.00;99.90;;;;;;5085197;28;20042;-73
2021/06/10 03:23:31;;;;;;;6.13;3.67;;;13.90;99.90;;;;;;5080973;28;20034;-73
2021/06/10 03:26:00;;;;;;;5.60;3.15;;;14.00;99.90;;;;;;5082186;28;20048;-73
2021/06/10 03:28:27;;;;;;;4.13;2.50;;;13.90;99.90;;;;;;5082974;28;20543;-73
2021/06/10 03:30:53;;;;;;;9.35;3.58;;;14.00;99.90;;;;;;5075083;28;20400;-73
2021/06/10 03:33:19;;;;;;;8.05;3.88;;;14.00;99.90;;;;;;5082386;28;20294;-73
2021/06/10 03:35:46;;;;;;;6.75;3.20;;;14.00;99.90;;;;;;5082539;28;20036;-73
2021/06/10 03:38:14;;;;;;;10.30;4.00;;;13.90;99.90;;;;;;5083472;28;20016;-73
2021/06/10 03:40:42;;;;;;;7.00;3.20;;;13.90;99.90;;;;;;5081620;28;20228;-72
2021/06/10 03:43:09;;;;;;;6.03;2.97;;;13.90;99.90;;;;;;5082071;28;20104;-73
2021/06/10 03:45:35;;;;;;;5.90;2.78;;;13.90;99.90;;;;;;5071363;28;20029;-73
2021/06/10 03:48:02;;;;;;;8.27;3.75;;;14.00;99.90;;;;;;5078333;28;20054;-73
2021/06/10 03:50:32;;;;;;;7.97;4.28;;;14.00;99.90;;;;;;5071305;28;20029;-73
2021/06/10 03:52:58;;;;;;;6.97;4.20;;;13.90;99.90;;;;;;5063733;28;20408;-73
2021/06/10 03:55:24;;;;;;;7.68;4.05;;;13.90;99.90;;;;;;5072042;28;20035;-73
2021/06/10 03:57:50;;;;;;;8.85;5.30;;;13.80;99.90;;;;;;5076857;28;20032;-73
2021/06/10 04:00:16;;;;;;;6.00;3.72;;;13.80;99.90;;;;;;5084380;28;20036;-73
2021/06/10 04:02:42;;;;;;;5.65;3.83;;;13.80;99.90;;;;;;5084268;28;20069;-73
2021/06/10 04:05:08;;;;;;;4.15;2.55;;;13.70;99.90;;;;;;5080592;28;20032;-73
2021/06/10 04:07:34;;;;;;;5.70;2.05;;;13.80;99.90;;;;;;5083472;28;20031;-73
2021/06/10 04:10:00;;;;;;;8.85;3.30;;;13.90;99.90;;;;;;5075771;28;20373;-73
2021/06/10 04:12:25;;;;;;;6.15;3.50;;;13.90;99.90;;;;;;5072680;28;20041;-73
2021/06/10 04:14:51;;;;;;;10.20;4.75;;;13.90;99.90;;;;;;5061644;28;20513;-73
2021/06/10 04:17:17;;;;;;;7.38;5.40;;;13.90;99.90;;;;;;5072192;28;20063;-73
2021/06/10 04:19:43;;;;;;;8.25;5.63;;;14.00;99.90;;;;;;5060509;28;20416;-72
2021/06/10 04:22:09;;;;;;;10.70;6.20;;;13.90;99.90;;;;;;5071320;28;20058;-73
2021/06/10 04:24:34;;;;;;;11.68;5.50;;;13.80;99.90;;;;;;5078042;28;20043;-73
2021/06/10 04:27:01;;;;;;;6.40;4.57;;;13.80;99.90;;;;;;5082732;28;20059;-73
2021/06/10 04:29:27;;;;;;;10.07;5.00;;;13.80;99.90;;;;;;5080601;28;20016;-73
2021/06/10 04:31:53;;;;;;;10.57;6.05;;;13.70;99.90;;;;;;5065140;28;20278;-73
2021/06/10 04:34:18;;;;;;;10.35;5.32;;;13.70;99.90;;;;;;5080698;28;20183;-72
2021/06/10 04:36:44;;;;;;;8.27;5.05;;;13.60;99.90;;;;;;5071699;28;20043;-73
2021/06/10 04:39:10;;;;;;;7.47;4.63;;;13.60;99.90;;;;;;5070449;28;20028;-73
2021/06/10 04:41:36;;;;;;;11.63;5.03;;;13.70;99.90;;;;;;5075162;28;20043;-73
2021/06/10 04:44:02;;;;;;;9.18;4.93;;;13.70;99.90;;;;;;5073605;28;20084;-73
2021/06/10 04:46:28;;;;;;;13.95;8.15;;;13.70;99.90;;;;;;5075468;28;20507;-73
2021/06/10 04:48:55;;;;;;;11.85;7.53;;;13.90;99.90;;;;;;5073112;28;20040;-73
2021/06/10 04:51:21;;;;;;;9.70;5.82;;;14.10;99.90;;;;;;5075097;28;20426;-72
2021/06/10 04:53:47;;;;;;;8.23;4.32;;;14.50;99.90;;;;;;5074129;28;20355;-73
2021/06/10 04:56:14;;;;;;;4.70;1.88;;;14.60;99.90;;;;;;5075527;28;20033;-73
2021/06/10 04:58:39;;;;;;;5.43;2.28;;;14.80;99.90;;;;;;5074205;28;20061;-73
2021/06/10 05:01:05;;;;;;;9.65;5.53;;;15.10;99.90;;;;;;5078547;28;20048;-73
2021/06/10 05:03:31;;;;;;;8.40;4.47;;;15.60;99.90;;;;;;5079369;28;20024;-73
2021/06/10 05:05:56;;;;;;;5.68;1.70;;;15.80;99.90;;;;;;5079039;28;20043;-73
2021/06/10 05:08:22;;;;;;;7.80;3.13;;;16.00;99.90;;;;;;5082968;28;20020;-73
2021/06/10 05:10:48;;;;;;;6.93;3.58;;;16.40;99.90;;;;;;5083184;28;20036;-73
2021/06/10 05:13:13;;;;;;;7.30;4.15;;;16.70;99.90;;;;;;5069975;28;20021;-73
2021/06/10 05:15:39;;;;;;;5.70;3.95;;;17.00;99.90;;;;;;5080281;28;20047;-73
2021/06/10 05:18:05;;;;;;;8.23;4.50;;;17.20;99.90;;;;;;5078607;28;20028;-73
2021/06/10 05:20:30;;;;;;;7.18;4.00;;;17.30;99.90;;;;;;5062609;28;20032;-73
2021/06/10 05:22:56;;;;;;;7.20;3.30;;;17.50;99.90;;;;;;5079714;28;20070;-73
2021/06/10 05:25:22;;;;;;;6.57;4.22;;;17.60;99.90;;;;;;5070219;28;20518;-73
2021/06/10 05:27:48;;;;;;;6.25;4.07;;;17.80;99.90;;;;;;5080021;28;20054;-73
2021/06/10 05:30:14;;;;;;;7.20;4.47;;;17.80;99.90;;;;;;5073496;28;20131;-73
2021/06/10 05:32:40;;;;;;;11.18;4.43;;;17.90;99.90;;;;;;5074033;28;20032;-73
2021/06/10 05:35:06;;;;;;;9.43;3.72;;;18.00;99.90;;;;;;5074476;28;20043;-73
2021/06/10 05:37:32;;;;;;;7.47;4.05;;;18.00;99.90;;;;;;5078134;28;20024;-73
2021/06/10 05:39:57;;;;;;;7.15;3.85;;;18.10;99.90;;;;;;5064025;28;20036;-73
2021/06/10 05:42:23;;;;;;;7.50;4.10;;;18.30;99.90;;;;;;5077921;28;20032;-73
2021/06/10 05:44:48;;;;;;;9.00;4.80;;;18.40;99.90;;;;;;5082076;28;20035;-73
2021/06/10 05:47:14;;;;;;;7.35;4.13;;;18.50;99.90;;;;;;5070910;28;20036;-73
2021/06/10 05:49:40;;;;;;;6.30;3.70;;;18.70;99.90;;;;;;5074069;28;20478;-73
2021/06/10 05:52:06;;;;;;;5.82;1.48;;;18.30;99.90;;;;;;5073900;28;20039;-73
2021/06/10 05:54:32;;;;;;;5.53;1.70;;;18.20;99.90;;;;;;5084951;28;20063;-73
2021/06/10 05:56:58;;;;;;;7.50;0.95;;;18.00;99.90;;;;;;5078720;28;20317;-73
2021/06/10 05:59:25;;;;;;;3.92;1.30;;;18.10;99.90;;;;;;5074837;28;20023;-73
2021/06/10 06:01:51;;;;;;;6.35;1.20;;;18.10;99.90;;;;;;5078585;28;20138;-73
2021/06/10 06:04:18;;;;;;;4.07;1.27;;;18.10;99.90;;;;;;5082120;28;20016;-73
2021/06/10 06:06:44;;;;;;;7.55;2.30;;;18.40;99.90;;;;;;5069342;28;20032;-73
2021/06/10 06:09:09;;;;;;;7.25;2.35;;;18.70;99.90;;;;;;5061273;28;20025;-73
2021/06/10 06:11:35;;;;;;;3.47;1.15;;;18.90;99.90;;;;;;5081842;28;20181;-73
2021/06/10 06:14:09;;;;;;;9.18;1.80;;;18.90;99.90;;;;;;5076086;28;20029;-73
2021/06/10 06:16:37;;;;;;;3.88;1.10;;;18.80;99.90;;;;;;5076859;28;20075;-73
2021/06/10 06:19:04;;;;;;;7.35;1.98;;;19.00;99.90;;;;;;5054946;28;20115;-73
2021/06/10 06:21:31;;;;;;;5.05;1.30;;;18.90;99.90;;;;;;5077990;28;21507;-72
2021/06/10 06:23:57;;;;;;;4.28;0.80;;;19.10;99.90;;;;;;5063802;28;20035;-73
2021/06/10 06:26:23;;;;;;;2.83;1.48;;;19.10;99.90;;;;;;5076188;28;20427;-73
2021/06/10 06:28:49;;;;;;;6.40;1.35;;;19.30;99.90;;;;;;5081466;28;20024;-73
2021/06/10 06:31:15;;;;;;;2.10;1.10;;;19.60;99.90;;;;;;5079052;28;20066;-72
2021/06/10 06:33:41;;;;;;;4.97;1.35;;;19.50;99.90;;;;;;5063968;28;20094;-72
2021/06/10 06:36:07;;;;;;;3.40;1.35;;;19.60;99.90;;;;;;5064244;28;20345;-73
2021/06/10 06:38:33;;;;;;;5.60;1.27;;;19.70;99.90;;;;;;5075358;28;20666;-73
2021/06/10 06:40:58;;;;;;;7.43;1.17;;;19.80;99.90;;;;;;5081655;28;20044;-73
2021/06/10 06:43:28;;;;;;;6.18;1.13;;;20.00;99.90;;;;;;5071468;28;20299;-72
2021/06/10 06:45:54;;;;;;;3.33;1.45;;;19.80;99.90;;;;;;5077919;28;20035;-72
2021/06/10 06:48:21;;;;;;;3.13;1.02;;;19.80;99.90;;;;;;5066328;28;20030;-72
2021/06/10 06:50:47;;;;;;;2.88;1.10;;;20.20;99.90;;;;;;5073890;28;20457;-72
2021/06/10 06:53:12;;;;;;;3.08;1.20;;;20.00;99.90;;;;;;5078740;28;20024;-72
2021/06/10 06:55:38;;;;;;;2.30;1.08;;;20.00;99.90;;;;;;5073375;28;20524;-72
2021/06/10 06:58:04;;;;;;;3.00;1.00;;;19.60;99.90;;;;;;5073058;28;20555;-72
2021/06/10 07:00:29;;;;;;;5.32;1.40;;;19.60;99.90;;;;;;5078655;28;20036;-72
2021/06/10 07:02:55;;;;;;;5.30;1.20;;;19.40;99.90;;;;;;5074441;28;20032;-72
2021/06/10 07:05:21;;;;;;;3.60;1.88;;;19.40;99.90;;;;;;5063709;28;20485;-72
2021/06/10 07:07:46;;;;;;;2.83;1.60;;;19.40;99.90;;;;;;5079336;28;20039;-72
2021/06/10 07:10:12;;;;;;;4.07;1.10;;;19.50;99.90;;;;;;5079411;28;20032;-72
2021/06/10 07:12:38;;;;;;;4.13;1.77;;;19.70;99.90;;;;;;5078199;28;20401;-72
2021/06/10 07:15:04;;;;;;;3.28;1.70;;;19.50;99.90;;;;;;5082601;28;20044;-72
2021/06/10 07:17:30;;;;;;;3.25;1.55;;;19.60;99.90;;;;;;5077636;28;20023;-72
2021/06/10 07:19:57;;;;;;;5.63;1.50;;;19.90;99.90;;;;;;5075671;28;20054;-72
2021/06/10 07:22:23;;;;;;;5.28;2.25;;;19.90;99.90;;;;;;5077738;28;20028;-72
2021/06/10 07:24:49;;;;;;;4.90;2.45;;;19.40;99.90;;;;;;5084338;28;20127;-72
2021/06/10 07:27:16;;;;;;;4.55;2.03;;;19.70;99.90;;;;;;5072971;28;20065;-72
2021/06/10 07:29:43;;;;;;;4.70;1.95;;;20.00;99.90;;;;;;5075992;28;20095;-72
2021/06/10 07:32:09;;;;;;;6.22;1.48;;;19.40;99.90;;;;;;5079020;28;20028;-72
2021/06/10 07:34:37;;;;;;;5.55;2.00;;;20.40;99.90;;;;;;5075307;28;20032;-72
2021/06/10 07:37:04;;;;;;;5.50;1.90;;;20.70;99.90;;;;;;5073848;28;20070;-72
2021/06/10 07:39:29;;;;;;;5.88;2.08;;;19.90;99.90;;;;;;5073343;28;20126;-72
2021/06/10 07:41:55;;;;;;;2.90;1.40;;;20.60;99.90;;;;;;5075104;28;20036;-72
2021/06/10 07:44:21;;;;;;;3.92;1.75;;;21.00;99.90;;;;;;5071578;28;20012;-72
2021/06/10 07:46:47;;;;;;;3.58;1.52;;;21.30;99.90;;;;;;5071073;28;20376;-72
2021/06/10 07:49:12;;;;;;;4.95;1.80;;;21.50;99.90;;;;;;5077516;28;20032;-72
2021/06/10 07:51:38;;;;;;;3.20;1.52;;;21.80;99.90;;;;;;5071488;28;20032;-72
2021/06/10 07:54:04;;;;;;;5.32;1.80;;;22.30;99.90;;;;;;5071624;28;20648;-72
2021/06/10 07:56:29;;;;;;;4.05;1.80;;;22.80;99.90;;;;;;5078093;28;20812;-72
2021/06/10 07:58:55;;;;;;;7.20;1.50;;;23.20;99.90;;;;;;5081573;28;20416;-72
2021/06/10 08:01:20;;;;;;;3.25;1.50;;;23.50;99.90;;;;;;5079596;28;20036;-72
2021/06/10 08:03:46;;;;;;;4.57;1.90;;;23.60;99.90;;;;;;5077361;28;20040;-73
2021/06/10 08:06:12;;;;;;;4.20;1.83;;;23.10;99.90;;;;;;5077800;28;20461;-72
2021/06/10 08:08:38;;;;;;;4.25;1.50;;;23.30;99.90;;;;;;5074370;28;20044;-72
2021/06/10 08:11:06;;;;;;;7.55;2.15;;;23.50;99.90;;;;;;5068898;28;20040;-72
2021/06/10 08:13:33;;;;;;;5.22;1.63;;;23.60;99.90;;;;;;5055964;28;20083;-72
2021/06/10 08:15:58;;;;;;;4.88;1.70;;;23.60;99.90;;;;;;5071901;28;20100;-73
2021/06/10 08:18:26;;;;;;;5.78;1.92;;;24.20;99.90;;;;;;5076621;28;20036;-72
2021/06/10 08:20:52;;;;;;;4.45;1.40;;;24.60;99.90;;;;;;5075337;28;20071;-72
2021/06/10 08:23:18;;;;;;;5.18;1.55;;;24.90;99.90;;;;;;5077183;28;20452;-72
2021/06/10 08:25:44;;;;;;;5.75;1.48;;;24.30;99.90;;;;;;5060577;28;20526;-72
2021/06/10 08:28:11;;;;;;;5.13;1.60;;;24.20;99.90;;;;;;5071426;28;20031;-73
2021/06/10 08:30:37;;;;;;;6.47;1.88;;;24.40;99.90;;;;;;5070178;28;20047;-72
2021/06/10 08:33:03;;;;;;;4.05;1.83;;;25.00;99.90;;;;;;5071682;28;20024;-72
2021/06/10 08:35:29;;;;;;;4.97;1.80;;;25.00;99.90;;;;;;5077582;28;20170;-72
2021/06/10 08:37:56;;;;;;;6.28;1.98;;;24.90;99.90;;;;;;5077914;28;20481;-72
2021/06/10 08:40:21;;;;;;;6.93;1.60;;;24.30;99.90;;;;;;5076842;28;20482;-72
2021/06/10 08:42:48;;;;;;;5.78;2.50;;;23.70;99.90;;;;;;5057437;28;20032;-72
2021/06/10 08:45:19;;;;;;;9.82;2.35;;;22.50;99.90;;;;;;5079822;28;20165;-72
2021/06/10 08:47:47;;;;;;;6.47;2.15;;;22.40;99.90;;;;;;5081448;28;20212;-72
2021/06/10 08:50:22;;;;;;;6.90;2.90;;;22.70;99.90;;;;;;5076306;28;20047;-72
2021/06/10 08:52:48;;;;;;;10.20;2.78;;;22.50;99.90;;;;;;5079326;28;20508;-72
2021/06/10 08:55:14;;;;;;;6.03;2.22;;;22.20;99.90;;;;;;5070478;28;20476;-72
2021/06/10 08:57:40;;;;;;;7.38;2.42;;;22.60;99.90;;;;;;5080707;28;20031;-72
2021/06/10 09:00:08;;;;;;;7.30;2.90;;;22.10;99.90;;;;;;5079710;28;20470;-72
2021/06/10 09:02:37;;;;;;;7.82;2.92;;;22.10;99.90;;;;;;5074785;28;21494;-72
2021/06/10 09:05:05;;;;;;;9.45;2.55;;;22.20;99.90;;;;;;5075285;28;20116;-72
2021/06/10 09:07:39;;;;;;;7.03;2.47;;;21.70;99.90;;;;;;5076839;28;20024;-72
2021/06/10 09:10:07;;;;;;;7.35;2.22;;;21.80;99.90;;;;;;5073024;28;20528;-72
2021/06/10 09:13:06;;;;;;;7.13;2.92;;;22.30;99.90;;;;;;5070020;28;20308;-72
2021/06/10 09:15:36;;;;;;;4.43;2.35;;;22.10;99.90;;;;;;5066468;28;20509;-72
2021/06/10 09:18:02;;;;;;;8.00;2.13;;;22.90;99.90;;;;;;5068560;28;20107;-72
2021/06/10 09:20:37;;;;;;;4.50;2.22;;;23.70;99.90;;;;;;5073511;28;20101;-72
2021/06/10 09:23:30;;;;;;;13.38;3.50;;;24.20;99.90;;;;;;5078349;28;20132;-72
2021/06/10 09:26:14;;;;;;;6.30;2.70;;;23.60;99.90;;;;;;5074715;28;20734;-72
2021/06/10 09:28:42;;;;;;;5.30;2.30;;;23.50;99.90;;;;;;5078196;28;20036;-72
2021/06/10 09:31:08;;;;;;;5.30;2.17;;;23.70;99.90;;;;;;5073424;28;20085;-72
2021/06/10 09:33:40;;;;;;;5.40;2.40;;;23.50;99.90;;;;;;5075365;28;20489;-72
2021/06/10 09:36:06;;;;;;;5.60;2.92;;;23.30;99.90;;;;;;5082237;28;20032;-73
2021/06/10 09:38:31;;;;;;;4.97;2.67;;;23.20;99.90;;;;;;5060210;28;20085;-73
2021/06/10 09:41:05;;;;;;;4.13;2.58;;;23.30;99.90;;;;;;5057129;28;20123;-73
2021/06/10 09:43:45;;;;;;;8.05;2.60;;;24.00;99.90;;;;;;5062424;28;20473;-72
2021/06/10 09:46:11;;;;;;;4.78;2.80;;;24.50;99.90;;;;;;5079143;28;20466;-72
2021/06/10 09:48:36;;;;;;;6.40;2.92;;;25.20;99.90;;;;;;5082095;28;20380;-72
2021/06/10 09:51:02;;;;;;;7.07;3.00;;;25.30;99.90;;;;;;5078504;28;20710;-73
2021/06/10 09:53:32;;;;;;;8.10;2.50;;;24.80;99.90;;;;;;5073850;28;20494;-73
2021/06/10 09:56:05;;;;;;;6.57;3.00;;;25.20;99.90;;;;;;5082375;28;20406;-72
2021/06/10 09:58:38;;;;;;;4.20;2.80;;;25.00;99.90;;;;;;5072355;28;20366;-72
2021/06/10 10:01:07;;;;;;;6.63;2.60;;;24.70;99.90;;;;;;5075593;28;20496;-72
2021/06/10 10:03:45;;;;;;;7.95;2.97;;;24.10;99.90;;;;;;5056602;28;20027;-72
2021/06/10 10:06:26;;;;;;;8.85;2.97;;;24.40;99.90;;;;;;5083236;28;20217;-72
2021/06/10 10:09:00;;;;;;;3.72;2.65;;;23.40;99.90;;;;;;5073772;28;20099;-72
2021/06/10 10:11:27;;;;;;;7.22;2.95;;;23.50;99.90;;;;;;5080483;28;20048;-72
2021/06/10 10:13:55;;;;;;;7.20;3.50;;;23.50;99.90;;;;;;5073143;28;20028;-72
2021/06/10 10:16:23;;;;;;;8.05;3.22;;;23.60;99.90;;;;;;5078386;28;20561;-72
2021/06/10 10:18:51;;;;;;;9.98;3.10;;;23.70;99.90;;;;;;5078423;28;20462;-73
2021/06/10 10:21:19;;;;;;;9.18;3.08;;;23.30;99.90;;;;;;5077957;28;20078;-72
2021/06/10 10:23:45;;;;;;;5.95;2.85;;;23.40;99.90;;;;;;5074113;28;20077;-72
2021/06/10 10:26:11;;;;;;;6.28;3.30;;;23.70;99.90;;;;;;5083271;28;20028;-72
2021/06/10 10:28:38;;;;;;;6.20;3.70;;;24.30;99.90;;;;;;5077805;28;20086;-73
2021/06/10 10:31:05;;;;;;;5.85;3.30;;;24.60;99.90;;;;;;5077815;28;20036;-72
2021/06/10 10:33:31;;;;;;;9.05;3.33;;;24.90;99.90;;;;;;5063246;28;20028;-72
2021/06/10 10:35:58;;;;;;;10.85;3.78;;;25.00;99.90;;;;;;5077324;28;20752;-72
2021/06/10 10:38:33;;;;;;;5.90;3.05;;;24.50;99.90;;;;;;5074288;28;20541;-72
2021/06/10 10:41:02;;;;;;;4.32;3.30;;;24.30;99.90;;;;;;5073248;28;20040;-72
2021/06/10 10:43:29;;;;;;;5.63;3.72;;;24.50;99.90;;;;;;5070758;28;20040;-72
2021/06/10 10:46:19;;;;;;;7.70;3.45;;;24.30;99.90;;;;;;5074558;28;20466;-73
2021/06/10 10:48:48;;;;;;;6.65;3.45;;;24.50;99.90;;;;;;5048519;28;20033;-73
2021/06/10 10:51:35;;;;;;;5.28;2.90;;;24.80;99.90;;;;;;5077189;28;20472;-72
2021/06/10 10:54:05;;;;;;;6.53;3.17;;;24.60;99.90;;;;;;5074532;28;20121;-72
2021/06/10 10:56:42;;;;;;;8.55;4.32;;;25.10;99.90;;;;;;5077867;28;20032;-72
2021/06/10 10:59:13;;;;;;;5.68;3.53;;;24.80;99.90;;;;;;5058409;28;20024;-72
2021/06/10 11:01:39;;;;;;;5.53;3.40;;;24.80;99.90;;;;;;5070564;28;20066;-72
2021/06/10 11:04:05;;;;;;;6.68;3.40;;;24.80;99.90;;;;;;5073982;28;20036;-72
2021/06/10 11:06:32;;;;;;;7.53;3.15;;;24.90;99.90;;;;;;5080590;28;20036;-72
2021/06/10 11:09:07;;;;;;;5.40;3.40;;;25.40;99.90;;;;;;5072624;28;20070;-72
2021/06/10 11:12:00;;;;;;;5.65;3.28;;;25.90;99.90;;;;;;5073455;28;20512;-72
2021/06/10 11:14:42;;;;;;;5.05;3.35;;;25.40;99.90;;;;;;5072759;28;20036;-72
2021/06/10 11:17:43;;;;;;;5.22;3.60;;;25.30;99.90;;;;;;5076003;28;20043;-73
2021/06/10 11:20:15;;;;;;;4.87;2.80;;;25.30;99.90;;;;;;5078532;28;20063;-72
2021/06/10 11:22:42;;;;;;;4.72;2.97;;;25.80;99.90;;;;;;5054995;28;20043;-72
2021/06/10 11:25:44;;;;;;;4.93;3.60;;;25.70;99.90;;;;;;5075618;28;20028;-73
2021/06/10 11:28:14;;;;;;;5.88;3.10;;;25.80;99.90;;;;;;5072981;28;20038;-72
2021/06/10 11:30:40;;;;;;;6.68;2.95;;;26.10;99.90;;;;;;5075803;28;20029;-72
2021/06/10 11:33:06;;;;;;;5.47;3.30;;;25.80;99.90;;;;;;5081049;28;20054;-72
2021/06/10 11:35:40;;;;;;;4.38;2.95;;;25.70;99.90;;;;;;5075341;28;20719;-73
2021/06/10 11:38:23;;;;;;;6.15;3.35;;;25.60;99.90;;;;;;5073063;28;20051;-73
2021/06/10 11:40:52;;;;;;;3.92;3.05;;;25.80;99.90;;;;;;5075564;28;20484;-73
2021/06/10 11:43:19;;;;;;;4.43;2.65;;;25.80;99.90;;;;;;5076365;28;20031;-72
2021/06/10 11:45:46;;;;;;;5.40;3.10;;;25.80;99.90;;;;;;5078204;28;20348;-72
2021/06/10 11:48:12;;;;;;;6.57;3.40;;;25.80;99.90;;;;;;5079542;28;20031;-72
2021/06/10 11:50:39;;;;;;;5.65;3.00;;;26.20;99.90;;;;;;5071130;28;20041;-73
2021/06/10 11:53:17;;;;;;;5.25;3.58;;;26.10;99.90;;;;;;5079321;28;20024;-72
2021/06/10 11:55:43;;;;;;;4.95;2.90;;;26.00;99.90;;;;;;5076759;28;20082;-72
2021/06/10 11:58:11;;;;;;;6.03;3.45;;;26.30;99.90;;;;;;5080943;28;20109;-72
2021/06/10 12:00:40;;;;;;;6.90;2.88;;;26.70;99.90;;;;;;5073183;28;20040;-72
2021/06/10 12:03:07;;;;;;;7.10;2.70;;;26.60;99.90;;;;;;5077490;28;20077;-73
2021/06/10 12:05:36;;;;;;;5.28;2.92;;;26.50;99.90;;;;;;5076718;28;20035;-72
2021/06/10 12:08:07;;;;;;;4.22;3.03;;;26.10;99.90;;;;;;5076158;28;20500;-72
2021/06/10 12:10:32;;;;;;;4.45;3.10;;;26.50;99.90;;;;;;5079232;28;20041;-72
2021/06/10 12:12:58;;;;;;;6.03;3.08;;;26.20;99.90;;;;;;5063354;28;20046;-73
2021/06/10 12:15:25;;;;;;;6.05;3.10;;;26.40;99.90;;;;;;5072238;28;20052;-73
2021/06/10 12:18:09;;;;;;;8.85;3.10;;;26.70;99.90;;;;;;5073921;28;20020;-73
2021/06/10 12:20:37;;;;;;;4.88;3.00;;;27.10;99.90;;;;;;5077407;28;20510;-73
2021/06/10 12:23:10;;;;;;;7.10;3.22;;;26.90;99.90;;;;;;5077882;28;20044;-72
2021/06/10 12:25:36;;;;;;;6.10;2.72;;;27.10;99.90;;;;;;5075415;28;20497;-72
2021/06/10 12:28:02;;;;;;;4.57;2.80;;;27.30;99.90;;;;;;5073827;28;20024;-73
2021/06/10 12:30:38;;;;;;;4.55;2.60;;;27.20;99.90;;;;;;5080997;28;20109;-72
2021/06/10 12:33:31;;;;;;;8.52;3.10;;;27.20;99.90;;;;;;5071278;28;20032;-73
2021/06/10 12:35:57;;;;;;;5.72;2.78;;;27.10;99.90;;;;;;5076795;28;20071;-72
2021/06/10 12:38:37;;;;;;;5.30;3.08;;;26.90;99.90;;;;;;5058939;28;20038;-72
2021/06/10 12:41:40;;;;;;;5.57;3.05;;;27.30;99.90;;;;;;5077735;28;20460;-73
2021/06/10 12:44:13;;;;;;;6.47;3.25;;;27.40;99.90;;;;;;5061178;28;20040;-73
2021/06/10 12:46:51;;;;;;;5.30;2.75;;;27.40;99.90;;;;;;5076456;28;20697;-73
2021/06/10 12:49:19;;;;;;;5.63;2.90;;;27.50;99.90;;;;;;5076964;28;20405;-72
2021/06/10 12:51:50;;;;;;;6.57;3.50;;;27.30;99.90;;;;;;5080946;28;20034;-72